FC2ブログ

ディスパッチャーの航空気象情報

運航管理者が航空に関する気象情報サイトを集めました。 フライト前に天気チェックに。ディスパッチャーになりたい人に。
上記の広告は1ヶ月以上更新のないブログに表示されています。
新しい記事を書く事で広告が消せます。
日本付近は弱い冬型の気圧配置になり、冷たい空気が流れ込む。
さらに気圧の谷が通過するため、日本海側では雪が降り、強まる所も。
太平洋側は、晴れ間が出るものの、別の気圧の谷の影響で、関東でも午後は一時的に雨や雪の降ることがありそう。
全国的に、朝は厳しい冷え込みで、特に北日本では水道管や路面の凍結などに注意。
また、日中も各地で平年を下回る寒さになるため、お出かけの際は万全の寒さ対策を。


by 天気のツボ

また寒い日が続きました。

RJCC 130630Z 19009KT 9999 FEW020 SCT040 BKN050 M04/M13 Q1021=
RJCC 130600Z 20008KT 9999 -SHSN FEW020 BKN040 M04/M12 Q1021=
RJCC 130530Z 16008KT 120V180 9999 -SHSN FEW020 BKN035 M04/M13 Q1020=
RJCC 130500Z 15005KT 9999 -SHSN FEW020 BKN040 M04/M12 Q1020=
RJCC 130430Z 19007KT 140V230 9999 -SHSN FEW020 BKN040 M04/M11 Q1020=
RJCC 130400Z 16008KT 9999 -SHSN FEW020 BKN040 BKN/// M05/M12 Q1021=
RJCC 130330Z 18008KT 140V210 9999 FEW020 BKN/// M04/M12 Q1021=
RJCC 130300Z 17007KT 9999 FEW020 BKN/// M05/M12 Q1021=
RJCC 130230Z 13006KT 100V170 9999 FEW020 BKN/// M05/M12 Q1022=
RJCC 130200Z 11004KT 070V170 9999 FEW015 SCT/// M06/M12 Q1022=
RJCC 130130Z 12004KT 080V170 9999 FEW015 SCT050 M06/M12 Q1022=
RJCC 130100Z 16004KT 110V190 9999 FEW015 SCT050 M07/M11 Q1022=
RJCC 130030Z 18005KT 9999 FEW015 BKN050 M07/M12 Q1022=
RJCC 130000Z 19003KT 160V240 9999 FEW015 SCT050 M08/M09 Q1023=


気温だけ見ると、本当に毎日寒いですね。
早く春の桜が見たいです。

天気・気象学のホームページをチェック
コメント
この記事へのコメント
コメントを投稿する
URL:
Comment:
Pass:
秘密: 管理者にだけ表示を許可する
 
トラックバック
この記事のトラックバックURL
http://wxdisp.blog113.fc2.com/tb.php/14-e9ecf3ac
この記事にトラックバックする(FC2ブログユーザー)
この記事へのトラックバック
上記広告は1ヶ月以上更新のないブログに表示されています。新しい記事を書くことで広告を消せます。